sensor_id;sensor_type;location;lat;lon;timestamp;P1;durP1;ratioP1;P2;durP2;ratioP2
17725;SDS011;8983;53.156;17.960;2023-04-21T00:02:22;13.17;;;7.50;;
17725;SDS011;8983;53.156;17.960;2023-04-21T00:04:51;9.17;;;6.50;;
17725;SDS011;8983;53.156;17.960;2023-04-21T00:07:20;8.80;;;6.40;;
17725;SDS011;8983;53.156;17.960;2023-04-21T00:09:49;10.63;;;6.87;;
17725;SDS011;8983;53.156;17.960;2023-04-21T00:12:17;8.77;;;6.40;;
17725;SDS011;8983;53.156;17.960;2023-04-21T00:14:46;11.30;;;6.73;;
17725;SDS011;8983;53.156;17.960;2023-04-21T00:17:14;10.13;;;6.73;;
17725;SDS011;8983;53.156;17.960;2023-04-21T00:19:42;10.77;;;6.47;;
17725;SDS011;8983;53.156;17.960;2023-04-21T00:22:11;10.50;;;6.93;;
17725;SDS011;8983;53.156;17.960;2023-04-21T00:24:41;10.43;;;7.07;;
17725;SDS011;8983;53.156;17.960;2023-04-21T00:27:09;11.50;;;7.77;;
17725;SDS011;8983;53.156;17.960;2023-04-21T00:29:38;8.97;;;7.13;;
17725;SDS011;8983;53.156;17.960;2023-04-21T00:32:06;9.40;;;6.67;;
17725;SDS011;8983;53.156;17.960;2023-04-21T00:34:35;12.33;;;6.97;;
17725;SDS011;8983;53.156;17.960;2023-04-21T00:37:03;10.77;;;6.60;;
17725;SDS011;8983;53.156;17.960;2023-04-21T00:39:31;10.77;;;6.70;;
17725;SDS011;8983;53.156;17.960;2023-04-21T00:42:01;8.07;;;6.33;;
17725;SDS011;8983;53.156;17.960;2023-04-21T00:44:29;10.93;;;6.90;;
17725;SDS011;8983;53.156;17.960;2023-04-21T00:46:57;9.50;;;7.37;;
17725;SDS011;8983;53.156;17.960;2023-04-21T00:49:25;10.83;;;6.93;;
17725;SDS011;8983;53.156;17.960;2023-04-21T00:51:54;9.87;;;6.60;;
17725;SDS011;8983;53.156;17.960;2023-04-21T00:54:23;10.10;;;6.77;;
17725;SDS011;8983;53.156;17.960;2023-04-21T00:56:52;9.33;;;6.83;;
17725;SDS011;8983;53.156;17.960;2023-04-21T00:59:22;10.90;;;6.80;;
17725;SDS011;8983;53.156;17.960;2023-04-21T01:01:50;10.43;;;6.83;;
17725;SDS011;8983;53.156;17.960;2023-04-21T01:04:19;12.83;;;7.43;;
17725;SDS011;8983;53.156;17.960;2023-04-21T01:06:47;10.77;;;7.00;;
17725;SDS011;8983;53.156;17.960;2023-04-21T01:09:16;10.03;;;6.60;;
17725;SDS011;8983;53.156;17.960;2023-04-21T01:11:58;10.37;;;7.00;;
17725;SDS011;8983;53.156;17.960;2023-04-21T01:14:30;21.27;;;7.83;;
17725;SDS011;8983;53.156;17.960;2023-04-21T01:16:58;10.03;;;6.60;;
17725;SDS011;8983;53.156;17.960;2023-04-21T01:19:27;11.77;;;6.40;;
17725;SDS011;8983;53.156;17.960;2023-04-21T01:22:00;7.67;;;6.83;;
17725;SDS011;8983;53.156;17.960;2023-04-21T01:24:36;8.23;;;7.00;;
17725;SDS011;8983;53.156;17.960;2023-04-21T01:27:07;10.10;;;6.90;;
17725;SDS011;8983;53.156;17.960;2023-04-21T01:29:36;13.40;;;7.23;;
17725;SDS011;8983;53.156;17.960;2023-04-21T01:32:05;11.93;;;7.47;;
17725;SDS011;8983;53.156;17.960;2023-04-21T01:34:34;9.33;;;6.93;;
17725;SDS011;8983;53.156;17.960;2023-04-21T01:37:05;11.33;;;7.17;;
17725;SDS011;8983;53.156;17.960;2023-04-21T01:39:36;8.23;;;6.70;;
17725;SDS011;8983;53.156;17.960;2023-04-21T01:42:04;10.80;;;6.83;;
17725;SDS011;8983;53.156;17.960;2023-04-21T01:44:33;11.13;;;7.07;;
17725;SDS011;8983;53.156;17.960;2023-04-21T01:47:02;10.40;;;6.97;;
17725;SDS011;8983;53.156;17.960;2023-04-21T01:49:30;9.27;;;6.93;;
17725;SDS011;8983;53.156;17.960;2023-04-21T01:51:58;10.67;;;8.23;;
17725;SDS011;8983;53.156;17.960;2023-04-21T01:54:28;9.57;;;7.30;;
17725;SDS011;8983;53.156;17.960;2023-04-21T01:56:56;12.33;;;7.50;;
17725;SDS011;8983;53.156;17.960;2023-04-21T01:59:24;10.23;;;7.37;;
17725;SDS011;8983;53.156;17.960;2023-04-21T02:01:54;11.37;;;7.10;;
17725;SDS011;8983;53.156;17.960;2023-04-21T02:04:22;9.27;;;6.47;;
17725;SDS011;8983;53.156;17.960;2023-04-21T02:06:51;10.80;;;7.10;;
17725;SDS011;8983;53.156;17.960;2023-04-21T02:09:19;9.60;;;6.60;;
17725;SDS011;8983;53.156;17.960;2023-04-21T02:11:49;9.43;;;6.97;;
17725;SDS011;8983;53.156;17.960;2023-04-21T02:14:17;14.30;;;8.73;;
17725;SDS011;8983;53.156;17.960;2023-04-21T02:16:45;14.40;;;8.90;;
17725;SDS011;8983;53.156;17.960;2023-04-21T02:19:13;16.17;;;8.43;;
17725;SDS011;8983;53.156;17.960;2023-04-21T02:21:41;9.67;;;7.37;;
17725;SDS011;8983;53.156;17.960;2023-04-21T02:24:10;12.27;;;7.37;;
17725;SDS011;8983;53.156;17.960;2023-04-21T02:26:38;10.87;;;7.57;;
17725;SDS011;8983;53.156;17.960;2023-04-21T02:29:07;11.47;;;6.97;;
17725;SDS011;8983;53.156;17.960;2023-04-21T02:31:35;10.73;;;6.63;;
17725;SDS011;8983;53.156;17.960;2023-04-21T02:34:23;12.67;;;7.27;;
17725;SDS011;8983;53.156;17.960;2023-04-21T02:36:51;11.27;;;7.43;;
17725;SDS011;8983;53.156;17.960;2023-04-21T02:39:22;9.90;;;6.90;;
17725;SDS011;8983;53.156;17.960;2023-04-21T02:41:50;8.37;;;6.47;;
17725;SDS011;8983;53.156;17.960;2023-04-21T02:44:19;14.83;;;7.37;;
17725;SDS011;8983;53.156;17.960;2023-04-21T02:46:47;11.10;;;7.40;;
17725;SDS011;8983;53.156;17.960;2023-04-21T02:49:16;12.13;;;8.00;;
17725;SDS011;8983;53.156;17.960;2023-04-21T02:51:44;12.37;;;7.07;;
17725;SDS011;8983;53.156;17.960;2023-04-21T02:54:12;11.83;;;7.20;;
17725;SDS011;8983;53.156;17.960;2023-04-21T02:56:41;14.23;;;7.37;;
17725;SDS011;8983;53.156;17.960;2023-04-21T02:59:09;11.67;;;7.60;;
17725;SDS011;8983;53.156;17.960;2023-04-21T03:01:43;11.23;;;7.30;;
17725;SDS011;8983;53.156;17.960;2023-04-21T03:04:11;11.00;;;7.73;;
17725;SDS011;8983;53.156;17.960;2023-04-21T03:06:39;15.10;;;7.73;;
17725;SDS011;8983;53.156;17.960;2023-04-21T03:09:07;13.53;;;7.47;;
17725;SDS011;8983;53.156;17.960;2023-04-21T03:11:36;8.50;;;7.40;;
17725;SDS011;8983;53.156;17.960;2023-04-21T03:14:04;12.60;;;7.50;;
17725;SDS011;8983;53.156;17.960;2023-04-21T03:16:32;14.67;;;7.37;;
17725;SDS011;8983;53.156;17.960;2023-04-21T03:19:01;16.53;;;7.37;;
17725;SDS011;8983;53.156;17.960;2023-04-21T03:21:30;11.53;;;7.23;;
17725;SDS011;8983;53.156;17.960;2023-04-21T03:23:58;12.30;;;7.50;;
17725;SDS011;8983;53.156;17.960;2023-04-21T03:26:26;11.67;;;7.77;;
17725;SDS011;8983;53.156;17.960;2023-04-21T03:28:54;12.30;;;7.50;;
17725;SDS011;8983;53.156;17.960;2023-04-21T03:31:23;10.87;;;7.47;;
17725;SDS011;8983;53.156;17.960;2023-04-21T03:33:51;11.10;;;8.07;;
17725;SDS011;8983;53.156;17.960;2023-04-21T03:36:20;12.87;;;7.53;;
17725;SDS011;8983;53.156;17.960;2023-04-21T03:38:49;11.40;;;7.63;;
17725;SDS011;8983;53.156;17.960;2023-04-21T03:41:17;11.07;;;6.70;;
17725;SDS011;8983;53.156;17.960;2023-04-21T03:43:45;12.93;;;6.93;;
17725;SDS011;8983;53.156;17.960;2023-04-21T03:46:17;12.70;;;7.00;;
17725;SDS011;8983;53.156;17.960;2023-04-21T03:48:45;12.27;;;7.70;;
17725;SDS011;8983;53.156;17.960;2023-04-21T03:51:14;10.17;;;7.47;;
17725;SDS011;8983;53.156;17.960;2023-04-21T03:53:43;9.03;;;6.70;;
17725;SDS011;8983;53.156;17.960;2023-04-21T03:56:11;13.77;;;7.67;;
17725;SDS011;8983;53.156;17.960;2023-04-21T03:58:39;15.13;;;8.03;;
17725;SDS011;8983;53.156;17.960;2023-04-21T04:01:08;9.90;;;7.10;;
17725;SDS011;8983;53.156;17.960;2023-04-21T04:03:36;9.87;;;7.20;;
17725;SDS011;8983;53.156;17.960;2023-04-21T04:06:04;13.40;;;7.67;;
17725;SDS011;8983;53.156;17.960;2023-04-21T04:08:32;9.33;;;6.73;;
17725;SDS011;8983;53.156;17.960;2023-04-21T04:11:02;9.93;;;7.20;;
17725;SDS011;8983;53.156;17.960;2023-04-21T04:13:30;14.63;;;8.10;;
17725;SDS011;8983;53.156;17.960;2023-04-21T04:15:58;13.47;;;7.77;;
17725;SDS011;8983;53.156;17.960;2023-04-21T04:18:26;13.53;;;8.30;;
17725;SDS011;8983;53.156;17.960;2023-04-21T04:20:54;10.23;;;7.33;;
17725;SDS011;8983;53.156;17.960;2023-04-21T04:23:22;14.27;;;7.50;;
17725;SDS011;8983;53.156;17.960;2023-04-21T04:25:51;11.27;;;7.43;;
17725;SDS011;8983;53.156;17.960;2023-04-21T04:28:20;12.53;;;7.53;;
17725;SDS011;8983;53.156;17.960;2023-04-21T04:30:49;10.93;;;7.03;;
17725;SDS011;8983;53.156;17.960;2023-04-21T04:33:18;10.27;;;6.73;;
17725;SDS011;8983;53.156;17.960;2023-04-21T04:35:46;9.47;;;7.07;;
17725;SDS011;8983;53.156;17.960;2023-04-21T04:38:14;15.67;;;9.33;;
17725;SDS011;8983;53.156;17.960;2023-04-21T04:40:42;11.47;;;8.47;;
17725;SDS011;8983;53.156;17.960;2023-04-21T04:43:11;12.87;;;8.33;;
17725;SDS011;8983;53.156;17.960;2023-04-21T04:45:40;13.83;;;7.73;;
17725;SDS011;8983;53.156;17.960;2023-04-21T04:48:09;11.23;;;8.10;;
17725;SDS011;8983;53.156;17.960;2023-04-21T04:50:37;10.77;;;8.33;;
17725;SDS011;8983;53.156;17.960;2023-04-21T04:53:05;11.50;;;7.30;;
17725;SDS011;8983;53.156;17.960;2023-04-21T04:55:33;15.07;;;7.87;;
17725;SDS011;8983;53.156;17.960;2023-04-21T04:58:02;13.70;;;8.63;;
17725;SDS011;8983;53.156;17.960;2023-04-21T05:00:31;13.30;;;7.87;;
17725;SDS011;8983;53.156;17.960;2023-04-21T05:03:00;12.67;;;7.73;;
17725;SDS011;8983;53.156;17.960;2023-04-21T05:05:29;12.43;;;8.13;;
17725;SDS011;8983;53.156;17.960;2023-04-21T05:07:57;15.77;;;8.83;;
17725;SDS011;8983;53.156;17.960;2023-04-21T05:10:25;13.47;;;8.20;;
17725;SDS011;8983;53.156;17.960;2023-04-21T05:12:53;10.20;;;7.87;;
17725;SDS011;8983;53.156;17.960;2023-04-21T05:15:21;12.97;;;7.77;;
17725;SDS011;8983;53.156;17.960;2023-04-21T05:17:49;11.10;;;7.87;;
17725;SDS011;8983;53.156;17.960;2023-04-21T05:20:19;13.00;;;7.90;;
17725;SDS011;8983;53.156;17.960;2023-04-21T05:22:47;11.83;;;7.80;;
17725;SDS011;8983;53.156;17.960;2023-04-21T05:25:15;12.03;;;7.60;;
17725;SDS011;8983;53.156;17.960;2023-04-21T05:27:43;13.07;;;7.93;;
17725;SDS011;8983;53.156;17.960;2023-04-21T05:30:11;14.40;;;8.37;;
17725;SDS011;8983;53.156;17.960;2023-04-21T05:32:39;9.50;;;7.93;;
17725;SDS011;8983;53.156;17.960;2023-04-21T05:35:08;11.90;;;7.53;;
17725;SDS011;8983;53.156;17.960;2023-04-21T05:37:37;10.63;;;7.47;;
17725;SDS011;8983;53.156;17.960;2023-04-21T05:40:06;10.63;;;8.17;;
17725;SDS011;8983;53.156;17.960;2023-04-21T05:42:34;16.33;;;8.30;;
17725;SDS011;8983;53.156;17.960;2023-04-21T05:45:02;10.93;;;7.87;;
17725;SDS011;8983;53.156;17.960;2023-04-21T05:47:31;14.03;;;8.07;;
17725;SDS011;8983;53.156;17.960;2023-04-21T05:49:59;13.50;;;8.20;;
17725;SDS011;8983;53.156;17.960;2023-04-21T05:52:27;12.83;;;7.80;;
17725;SDS011;8983;53.156;17.960;2023-04-21T05:54:57;12.63;;;8.47;;
17725;SDS011;8983;53.156;17.960;2023-04-21T05:57:25;14.20;;;7.87;;
17725;SDS011;8983;53.156;17.960;2023-04-21T05:59:54;14.00;;;8.30;;
17725;SDS011;8983;53.156;17.960;2023-04-21T06:02:22;13.57;;;8.23;;
17725;SDS011;8983;53.156;17.960;2023-04-21T06:04:50;15.73;;;8.33;;
17725;SDS011;8983;53.156;17.960;2023-04-21T06:07:19;12.30;;;8.23;;
17725;SDS011;8983;53.156;17.960;2023-04-21T06:09:48;10.13;;;7.70;;
17725;SDS011;8983;53.156;17.960;2023-04-21T06:12:18;11.70;;;8.37;;
17725;SDS011;8983;53.156;17.960;2023-04-21T06:14:47;11.07;;;7.60;;
17725;SDS011;8983;53.156;17.960;2023-04-21T06:17:15;13.27;;;8.33;;
17725;SDS011;8983;53.156;17.960;2023-04-21T06:19:44;13.00;;;7.80;;
17725;SDS011;8983;53.156;17.960;2023-04-21T06:22:18;14.20;;;7.97;;
17725;SDS011;8983;53.156;17.960;2023-04-21T06:24:47;12.80;;;7.30;;
17725;SDS011;8983;53.156;17.960;2023-04-21T06:27:15;10.27;;;7.47;;
17725;SDS011;8983;53.156;17.960;2023-04-21T06:29:45;11.03;;;7.27;;
17725;SDS011;8983;53.156;17.960;2023-04-21T06:32:13;13.53;;;7.57;;
17725;SDS011;8983;53.156;17.960;2023-04-21T06:34:42;11.47;;;7.03;;
17725;SDS011;8983;53.156;17.960;2023-04-21T06:37:10;11.70;;;7.80;;
17725;SDS011;8983;53.156;17.960;2023-04-21T06:39:38;13.20;;;7.40;;
17725;SDS011;8983;53.156;17.960;2023-04-21T06:42:06;12.23;;;8.30;;
17725;SDS011;8983;53.156;17.960;2023-04-21T06:44:34;13.13;;;7.53;;
17725;SDS011;8983;53.156;17.960;2023-04-21T06:47:05;11.07;;;7.90;;
17725;SDS011;8983;53.156;17.960;2023-04-21T06:49:33;11.03;;;7.60;;
17725;SDS011;8983;53.156;17.960;2023-04-21T06:52:02;12.10;;;7.63;;
17725;SDS011;8983;53.156;17.960;2023-04-21T06:54:31;8.87;;;7.43;;
17725;SDS011;8983;53.156;17.960;2023-04-21T06:56:59;11.17;;;7.97;;
17725;SDS011;8983;53.156;17.960;2023-04-21T06:59:27;13.13;;;7.50;;
17725;SDS011;8983;53.156;17.960;2023-04-21T07:01:55;9.07;;;6.97;;
17725;SDS011;8983;53.156;17.960;2023-04-21T07:04:25;12.13;;;8.57;;
17725;SDS011;8983;53.156;17.960;2023-04-21T07:06:55;13.93;;;6.97;;
17725;SDS011;8983;53.156;17.960;2023-04-21T07:09:26;7.70;;;7.00;;
17725;SDS011;8983;53.156;17.960;2023-04-21T07:11:56;9.10;;;6.40;;
17725;SDS011;8983;53.156;17.960;2023-04-21T07:14:24;10.47;;;6.57;;
17725;SDS011;8983;53.156;17.960;2023-04-21T07:16:52;10.57;;;6.90;;
17725;SDS011;8983;53.156;17.960;2023-04-21T07:19:22;10.43;;;7.20;;
17725;SDS011;8983;53.156;17.960;2023-04-21T07:21:52;9.90;;;6.70;;
17725;SDS011;8983;53.156;17.960;2023-04-21T07:24:20;11.17;;;7.13;;
17725;SDS011;8983;53.156;17.960;2023-04-21T07:26:48;12.30;;;7.20;;
17725;SDS011;8983;53.156;17.960;2023-04-21T07:29:16;9.50;;;6.63;;
17725;SDS011;8983;53.156;17.960;2023-04-21T07:31:44;10.40;;;6.30;;
17725;SDS011;8983;53.156;17.960;2023-04-21T07:34:13;11.43;;;6.40;;
17725;SDS011;8983;53.156;17.960;2023-04-21T07:36:42;8.67;;;5.97;;
17725;SDS011;8983;53.156;17.960;2023-04-21T07:39:11;9.90;;;7.30;;
17725;SDS011;8983;53.156;17.960;2023-04-21T07:41:39;8.27;;;5.93;;
17725;SDS011;8983;53.156;17.960;2023-04-21T07:44:07;7.97;;;5.97;;
17725;SDS011;8983;53.156;17.960;2023-04-21T07:46:35;6.97;;;5.80;;
17725;SDS011;8983;53.156;17.960;2023-04-21T07:49:03;9.23;;;5.60;;
17725;SDS011;8983;53.156;17.960;2023-04-21T07:51:31;5.77;;;5.00;;
17725;SDS011;8983;53.156;17.960;2023-04-21T07:53:59;9.50;;;6.03;;
17725;SDS011;8983;53.156;17.960;2023-04-21T07:56:29;11.57;;;5.47;;
17725;SDS011;8983;53.156;17.960;2023-04-21T07:58:57;8.90;;;5.50;;
17725;SDS011;8983;53.156;17.960;2023-04-21T08:01:25;6.97;;;5.00;;
17725;SDS011;8983;53.156;17.960;2023-04-21T08:03:53;8.47;;;5.13;;
17725;SDS011;8983;53.156;17.960;2023-04-21T08:06:21;8.03;;;5.30;;
17725;SDS011;8983;53.156;17.960;2023-04-21T08:08:49;10.33;;;5.20;;
17725;SDS011;8983;53.156;17.960;2023-04-21T08:11:17;8.37;;;5.27;;
17725;SDS011;8983;53.156;17.960;2023-04-21T08:13:46;6.17;;;5.10;;
17725;SDS011;8983;53.156;17.960;2023-04-21T08:16:14;7.30;;;4.83;;
17725;SDS011;8983;53.156;17.960;2023-04-21T08:18:42;5.87;;;4.60;;
17725;SDS011;8983;53.156;17.960;2023-04-21T08:21:10;8.90;;;4.37;;
17725;SDS011;8983;53.156;17.960;2023-04-21T08:23:39;6.07;;;4.33;;
17725;SDS011;8983;53.156;17.960;2023-04-21T08:26:07;5.33;;;4.00;;
17725;SDS011;8983;53.156;17.960;2023-04-21T08:28:36;8.60;;;4.73;;
17725;SDS011;8983;53.156;17.960;2023-04-21T08:31:05;5.17;;;4.53;;
17725;SDS011;8983;53.156;17.960;2023-04-21T08:33:35;6.53;;;5.00;;
17725;SDS011;8983;53.156;17.960;2023-04-21T08:36:19;5.30;;;4.40;;
17725;SDS011;8983;53.156;17.960;2023-04-21T08:38:55;6.40;;;4.30;;
17725;SDS011;8983;53.156;17.960;2023-04-21T08:41:23;4.77;;;3.73;;
17725;SDS011;8983;53.156;17.960;2023-04-21T08:43:51;5.63;;;3.83;;
17725;SDS011;8983;53.156;17.960;2023-04-21T08:46:22;5.90;;;3.80;;
17725;SDS011;8983;53.156;17.960;2023-04-21T08:48:50;6.47;;;4.03;;
17725;SDS011;8983;53.156;17.960;2023-04-21T08:51:21;7.47;;;3.97;;
17725;SDS011;8983;53.156;17.960;2023-04-21T08:53:50;5.50;;;3.87;;
17725;SDS011;8983;53.156;17.960;2023-04-21T08:56:20;4.97;;;3.20;;
17725;SDS011;8983;53.156;17.960;2023-04-21T08:58:51;6.43;;;3.80;;
17725;SDS011;8983;53.156;17.960;2023-04-21T09:01:21;5.10;;;3.10;;
17725;SDS011;8983;53.156;17.960;2023-04-21T09:03:49;6.57;;;3.07;;
17725;SDS011;8983;53.156;17.960;2023-04-21T09:06:17;5.03;;;3.07;;
17725;SDS011;8983;53.156;17.960;2023-04-21T09:08:51;3.10;;;2.80;;
17725;SDS011;8983;53.156;17.960;2023-04-21T09:11:21;3.20;;;2.90;;
17725;SDS011;8983;53.156;17.960;2023-04-21T09:13:49;6.53;;;3.33;;
17725;SDS011;8983;53.156;17.960;2023-04-21T09:16:19;6.03;;;3.10;;
17725;SDS011;8983;53.156;17.960;2023-04-21T09:18:48;4.17;;;3.10;;
17725;SDS011;8983;53.156;17.960;2023-04-21T09:21:17;5.40;;;2.60;;
17725;SDS011;8983;53.156;17.960;2023-04-21T09:23:46;4.83;;;2.63;;
17725;SDS011;8983;53.156;17.960;2023-04-21T09:26:16;3.20;;;2.77;;
17725;SDS011;8983;53.156;17.960;2023-04-21T09:28:45;3.23;;;2.47;;
17725;SDS011;8983;53.156;17.960;2023-04-21T09:31:14;3.60;;;2.77;;
17725;SDS011;8983;53.156;17.960;2023-04-21T09:33:47;3.33;;;2.90;;
17725;SDS011;8983;53.156;17.960;2023-04-21T09:36:18;6.03;;;2.87;;
17725;SDS011;8983;53.156;17.960;2023-04-21T09:38:56;3.57;;;2.87;;
17725;SDS011;8983;53.156;17.960;2023-04-21T09:41:29;3.70;;;2.60;;
17725;SDS011;8983;53.156;17.960;2023-04-21T09:43:57;3.33;;;2.60;;
17725;SDS011;8983;53.156;17.960;2023-04-21T09:46:27;5.03;;;2.80;;
17725;SDS011;8983;53.156;17.960;2023-04-21T09:49:00;5.60;;;2.67;;
17725;SDS011;8983;53.156;17.960;2023-04-21T09:51:29;5.03;;;2.87;;
17725;SDS011;8983;53.156;17.960;2023-04-21T09:54:18;5.67;;;2.87;;
17725;SDS011;8983;53.156;17.960;2023-04-21T09:56:57;4.67;;;3.17;;
17725;SDS011;8983;53.156;17.960;2023-04-21T09:59:28;3.20;;;2.87;;
17725;SDS011;8983;53.156;17.960;2023-04-21T10:01:58;4.17;;;2.70;;
17725;SDS011;8983;53.156;17.960;2023-04-21T10:04:29;3.27;;;2.60;;
17725;SDS011;8983;53.156;17.960;2023-04-21T10:06:58;4.27;;;3.00;;
17725;SDS011;8983;53.156;17.960;2023-04-21T10:09:29;2.97;;;2.67;;
17725;SDS011;8983;53.156;17.960;2023-04-21T10:12:01;4.33;;;2.57;;
17725;SDS011;8983;53.156;17.960;2023-04-21T10:14:34;4.37;;;2.57;;
17725;SDS011;8983;53.156;17.960;2023-04-21T10:17:02;4.80;;;2.93;;
17725;SDS011;8983;53.156;17.960;2023-04-21T10:19:33;3.40;;;3.10;;
17725;SDS011;8983;53.156;17.960;2023-04-21T10:22:05;4.10;;;2.60;;
17725;SDS011;8983;53.156;17.960;2023-04-21T10:24:38;2.77;;;2.53;;
17725;SDS011;8983;53.156;17.960;2023-04-21T10:27:08;4.93;;;3.10;;
17725;SDS011;8983;53.156;17.960;2023-04-21T10:29:38;4.13;;;2.77;;
17725;SDS011;8983;53.156;17.960;2023-04-21T10:32:30;4.90;;;3.20;;
17725;SDS011;8983;53.156;17.960;2023-04-21T10:35:10;4.30;;;2.90;;
17725;SDS011;8983;53.156;17.960;2023-04-21T10:37:41;4.00;;;3.20;;
17725;SDS011;8983;53.156;17.960;2023-04-21T10:46:30;4.87;;;2.33;;
17725;SDS011;8983;53.156;17.960;2023-04-21T10:49:03;5.83;;;2.70;;
17725;SDS011;8983;53.156;17.960;2023-04-21T10:51:35;3.70;;;2.67;;
17725;SDS011;8983;53.156;17.960;2023-04-21T10:54:35;3.95;;;2.83;;
17725;SDS011;8983;53.156;17.960;2023-04-21T10:57:08;4.47;;;2.35;;
17725;SDS011;8983;53.156;17.960;2023-04-21T10:59:37;3.22;;;2.88;;
17725;SDS011;8983;53.156;17.960;2023-04-21T11:02:06;3.38;;;2.50;;
17725;SDS011;8983;53.156;17.960;2023-04-21T11:04:34;4.68;;;2.65;;
17725;SDS011;8983;53.156;17.960;2023-04-21T11:07:07;6.53;;;2.50;;
17725;SDS011;8983;53.156;17.960;2023-04-21T11:09:38;3.40;;;2.70;;
17725;SDS011;8983;53.156;17.960;2023-04-21T11:12:08;4.32;;;2.72;;
17725;SDS011;8983;53.156;17.960;2023-04-21T11:14:38;3.67;;;2.70;;
17725;SDS011;8983;53.156;17.960;2023-04-21T11:17:09;3.75;;;2.80;;
17725;SDS011;8983;53.156;17.960;2023-04-21T11:19:38;5.28;;;2.75;;
17725;SDS011;8983;53.156;17.960;2023-04-21T11:22:08;4.28;;;2.72;;
17725;SDS011;8983;53.156;17.960;2023-04-21T11:24:36;4.97;;;3.10;;
17725;SDS011;8983;53.156;17.960;2023-04-21T11:27:06;5.25;;;2.97;;
17725;SDS011;8983;53.156;17.960;2023-04-21T11:29:37;3.88;;;3.00;;
17725;SDS011;8983;53.156;17.960;2023-04-21T11:32:05;3.67;;;2.75;;
17725;SDS011;8983;53.156;17.960;2023-04-21T11:34:35;5.25;;;3.03;;
17725;SDS011;8983;53.156;17.960;2023-04-21T11:37:05;5.18;;;2.97;;
17725;SDS011;8983;53.156;17.960;2023-04-21T11:39:37;8.27;;;3.50;;
17725;SDS011;8983;53.156;17.960;2023-04-21T11:42:06;3.83;;;3.35;;
17725;SDS011;8983;53.156;17.960;2023-04-21T11:44:35;3.78;;;3.13;;
17725;SDS011;8983;53.156;17.960;2023-04-21T11:47:11;7.05;;;3.30;;
17725;SDS011;8983;53.156;17.960;2023-04-21T11:49:44;3.00;;;2.70;;
17725;SDS011;8983;53.156;17.960;2023-04-21T11:52:18;4.55;;;3.30;;
17725;SDS011;8983;53.156;17.960;2023-04-21T11:54:53;4.05;;;3.42;;
17725;SDS011;8983;53.156;17.960;2023-04-21T11:57:22;3.50;;;3.20;;
17725;SDS011;8983;53.156;17.960;2023-04-21T11:59:51;4.63;;;2.83;;
17725;SDS011;8983;53.156;17.960;2023-04-21T12:02:20;5.20;;;3.17;;
17725;SDS011;8983;53.156;17.960;2023-04-21T12:04:57;5.28;;;3.20;;
17725;SDS011;8983;53.156;17.960;2023-04-21T12:07:30;3.83;;;3.10;;
17725;SDS011;8983;53.156;17.960;2023-04-21T12:10:07;4.32;;;3.30;;
17725;SDS011;8983;53.156;17.960;2023-04-21T12:12:37;5.03;;;3.63;;
17725;SDS011;8983;53.156;17.960;2023-04-21T12:15:06;5.63;;;3.20;;
17725;SDS011;8983;53.156;17.960;2023-04-21T12:17:36;4.30;;;3.25;;
17725;SDS011;8983;53.156;17.960;2023-04-21T12:20:05;4.82;;;3.13;;
17725;SDS011;8983;53.156;17.960;2023-04-21T12:22:35;5.95;;;3.25;;
17725;SDS011;8983;53.156;17.960;2023-04-21T12:25:05;5.65;;;3.28;;
17725;SDS011;8983;53.156;17.960;2023-04-21T12:27:34;4.45;;;3.10;;
17725;SDS011;8983;53.156;17.960;2023-04-21T12:30:02;3.67;;;3.25;;
17725;SDS011;8983;53.156;17.960;2023-04-21T12:32:31;4.82;;;3.40;;
17725;SDS011;8983;53.156;17.960;2023-04-21T12:34:59;4.78;;;2.88;;
17725;SDS011;8983;53.156;17.960;2023-04-21T12:37:28;3.63;;;3.22;;
17725;SDS011;8983;53.156;17.960;2023-04-21T12:39:57;5.93;;;3.63;;
17725;SDS011;8983;53.156;17.960;2023-04-21T12:42:26;6.15;;;2.85;;
17725;SDS011;8983;53.156;17.960;2023-04-21T12:44:54;6.13;;;3.00;;
17725;SDS011;8983;53.156;17.960;2023-04-21T12:47:22;4.20;;;3.13;;
17725;SDS011;8983;53.156;17.960;2023-04-21T12:49:50;4.35;;;3.10;;
17725;SDS011;8983;53.156;17.960;2023-04-21T12:52:18;4.53;;;3.05;;
17725;SDS011;8983;53.156;17.960;2023-04-21T12:54:46;3.33;;;3.03;;
17725;SDS011;8983;53.156;17.960;2023-04-21T12:57:14;4.88;;;3.10;;
17725;SDS011;8983;53.156;17.960;2023-04-21T12:59:44;5.82;;;3.50;;
17725;SDS011;8983;53.156;17.960;2023-04-21T13:02:12;4.32;;;2.92;;
17725;SDS011;8983;53.156;17.960;2023-04-21T13:04:40;4.00;;;2.95;;
17725;SDS011;8983;53.156;17.960;2023-04-21T13:07:08;2.90;;;2.70;;
17725;SDS011;8983;53.156;17.960;2023-04-21T13:09:37;4.00;;;3.05;;
17725;SDS011;8983;53.156;17.960;2023-04-21T13:12:05;5.57;;;2.92;;
17725;SDS011;8983;53.156;17.960;2023-04-21T13:14:33;3.53;;;3.00;;
17725;SDS011;8983;53.156;17.960;2023-04-21T13:17:03;3.30;;;2.80;;
17725;SDS011;8983;53.156;17.960;2023-04-21T13:19:31;3.60;;;3.03;;
17725;SDS011;8983;53.156;17.960;2023-04-21T13:21:59;5.25;;;2.67;;
17725;SDS011;8983;53.156;17.960;2023-04-21T13:24:28;5.05;;;2.92;;
17725;SDS011;8983;53.156;17.960;2023-04-21T13:26:56;3.60;;;3.05;;
17725;SDS011;8983;53.156;17.960;2023-04-21T13:29:24;4.65;;;3.10;;
17725;SDS011;8983;53.156;17.960;2023-04-21T13:31:55;3.67;;;2.90;;
17725;SDS011;8983;53.156;17.960;2023-04-21T13:34:25;3.10;;;2.80;;
17725;SDS011;8983;53.156;17.960;2023-04-21T13:36:53;4.60;;;2.70;;
17725;SDS011;8983;53.156;17.960;2023-04-21T13:39:21;6.63;;;2.83;;
17725;SDS011;8983;53.156;17.960;2023-04-21T13:41:49;6.30;;;2.67;;
17725;SDS011;8983;53.156;17.960;2023-04-21T13:44:19;5.65;;;2.75;;
17725;SDS011;8983;53.156;17.960;2023-04-21T13:46:47;3.63;;;2.75;;
17725;SDS011;8983;53.156;17.960;2023-04-21T13:49:17;6.25;;;2.78;;
17725;SDS011;8983;53.156;17.960;2023-04-21T13:51:47;4.88;;;2.72;;
17725;SDS011;8983;53.156;17.960;2023-04-21T13:54:15;4.75;;;2.70;;
17725;SDS011;8983;53.156;17.960;2023-04-21T13:56:43;4.82;;;2.58;;
17725;SDS011;8983;53.156;17.960;2023-04-21T13:59:11;6.55;;;3.38;;
17725;SDS011;8983;53.156;17.960;2023-04-21T14:01:41;4.30;;;3.15;;
17725;SDS011;8983;53.156;17.960;2023-04-21T14:04:09;3.05;;;2.75;;
17725;SDS011;8983;53.156;17.960;2023-04-21T14:06:38;4.07;;;2.80;;
17725;SDS011;8983;53.156;17.960;2023-04-21T14:09:07;3.92;;;2.67;;
17725;SDS011;8983;53.156;17.960;2023-04-21T14:11:35;4.82;;;2.70;;
17725;SDS011;8983;53.156;17.960;2023-04-21T14:14:04;4.22;;;3.08;;
17725;SDS011;8983;53.156;17.960;2023-04-21T14:16:35;3.53;;;3.00;;
17725;SDS011;8983;53.156;17.960;2023-04-21T14:19:04;3.60;;;2.97;;
17725;SDS011;8983;53.156;17.960;2023-04-21T14:21:32;5.20;;;2.80;;
17725;SDS011;8983;53.156;17.960;2023-04-21T14:24:00;3.22;;;2.90;;
17725;SDS011;8983;53.156;17.960;2023-04-21T14:26:30;4.13;;;3.17;;
17725;SDS011;8983;53.156;17.960;2023-04-21T14:28:58;4.38;;;2.95;;
17725;SDS011;8983;53.156;17.960;2023-04-21T14:31:26;3.63;;;2.65;;
17725;SDS011;8983;53.156;17.960;2023-04-21T14:33:55;3.53;;;2.90;;
17725;SDS011;8983;53.156;17.960;2023-04-21T14:36:23;3.15;;;2.67;;
17725;SDS011;8983;53.156;17.960;2023-04-21T14:38:51;3.25;;;2.80;;
17725;SDS011;8983;53.156;17.960;2023-04-21T14:41:19;3.72;;;3.20;;
17725;SDS011;8983;53.156;17.960;2023-04-21T14:43:48;7.95;;;3.33;;
17725;SDS011;8983;53.156;17.960;2023-04-21T14:46:19;4.97;;;3.55;;
17725;SDS011;8983;53.156;17.960;2023-04-21T14:48:47;5.55;;;3.05;;
17725;SDS011;8983;53.156;17.960;2023-04-21T14:51:16;4.85;;;2.90;;
17725;SDS011;8983;53.156;17.960;2023-04-21T14:53:44;3.90;;;3.50;;
17725;SDS011;8983;53.156;17.960;2023-04-21T14:56:13;3.88;;;3.03;;
17725;SDS011;8983;53.156;17.960;2023-04-21T14:58:42;4.78;;;3.20;;
17725;SDS011;8983;53.156;17.960;2023-04-21T15:01:11;4.63;;;3.20;;
17725;SDS011;8983;53.156;17.960;2023-04-21T15:03:40;4.88;;;3.85;;